createdAt,value
2019-03-20T00:00:38.870Z,10.63
2019-03-20T00:03:07.657Z,8.30
2019-03-20T00:05:36.343Z,9.90
2019-03-20T00:08:05.131Z,6.45
2019-03-20T00:10:33.750Z,7.12
2019-03-20T00:13:02.400Z,7.20
2019-03-20T00:15:31.086Z,8.25
2019-03-20T00:17:59.778Z,10.35
2019-03-20T00:20:28.265Z,6.60
2019-03-20T00:22:56.786Z,11.65
2019-03-20T00:25:25.273Z,8.25
2019-03-20T00:27:54.498Z,8.80
2019-03-20T00:30:23.002Z,8.53
2019-03-20T00:32:51.515Z,9.18
2019-03-20T00:35:20.069Z,9.18
2019-03-20T00:37:48.547Z,9.40
2019-03-20T00:40:17.877Z,12.33
2019-03-20T00:42:46.351Z,6.72
2019-03-20T00:45:21.728Z,9.03
2019-03-20T00:47:50.261Z,9.10
2019-03-20T00:50:19.378Z,7.85
2019-03-20T00:52:47.848Z,8.58
2019-03-20T00:55:16.667Z,8.98
2019-03-20T00:57:45.260Z,7.90
2019-03-20T01:00:18.605Z,6.28
2019-03-20T01:02:47.123Z,9.00
2019-03-20T01:05:15.633Z,6.42
2019-03-20T01:07:44.258Z,8.28
2019-03-20T01:10:16.036Z,5.15
2019-03-20T01:12:44.496Z,7.60
2019-03-20T01:15:13.101Z,8.35
2019-03-20T01:17:41.668Z,10.00
2019-03-20T01:20:16.207Z,9.73
2019-03-20T01:22:44.729Z,11.68
2019-03-20T01:25:13.472Z,10.45
2019-03-20T01:27:41.945Z,8.45
2019-03-20T01:30:37.508Z,9.78
2019-03-20T01:33:08.404Z,9.68
2019-03-20T01:35:36.866Z,8.45
2019-03-20T01:38:05.798Z,9.75
2019-03-20T01:40:34.244Z,10.70
2019-03-20T01:43:02.733Z,8.03
2019-03-20T01:45:31.208Z,11.53
2019-03-20T01:47:59.746Z,8.58
2019-03-20T01:50:28.345Z,9.50
2019-03-20T01:52:56.812Z,13.50
2019-03-20T01:55:25.866Z,7.90
2019-03-20T01:57:54.538Z,11.60
2019-03-20T02:00:23.195Z,10.70
2019-03-20T02:02:51.984Z,8.35
2019-03-20T02:05:20.753Z,9.25
2019-03-20T02:07:49.498Z,9.68
2019-03-20T02:10:18.497Z,11.80
2019-03-20T02:12:47.193Z,10.78
2019-03-20T02:15:17.255Z,13.53
2019-03-20T02:17:46.040Z,11.30
2019-03-20T02:20:16.221Z,10.95
2019-03-20T02:22:44.950Z,11.05
2019-03-20T02:25:14.564Z,12.60
2019-03-20T02:27:43.250Z,12.10
2019-03-20T02:30:17.268Z,15.15
2019-03-20T02:35:14.103Z,13.00
2019-03-20T02:37:42.636Z,14.13
2019-03-20T02:40:13.928Z,10.15
2019-03-20T02:42:42.631Z,9.73
2019-03-20T02:45:13.797Z,9.68
2019-03-20T02:47:42.463Z,10.10
2019-03-20T02:53:16.018Z,10.82
2019-03-20T02:55:44.716Z,10.35
2019-03-20T02:58:13.614Z,12.90
2019-03-20T03:00:45.211Z,11.03
2019-03-20T03:03:13.846Z,8.08
2019-03-20T03:05:44.177Z,12.33
2019-03-20T03:08:12.866Z,10.68
2019-03-20T03:10:57.326Z,11.43
2019-03-20T03:13:25.922Z,12.07
2019-03-20T03:15:54.401Z,12.93
2019-03-20T03:18:23.481Z,13.98
2019-03-20T03:20:52.128Z,16.17
2019-03-20T03:42:22.816Z,9.95
2019-03-20T03:44:51.313Z,9.23
2019-03-20T03:47:20.702Z,9.43
2019-03-20T03:49:50.835Z,13.60
2019-03-20T04:18:54.828Z,6.78
2019-03-20T04:38:35.443Z,8.20
2019-03-20T05:00:44.286Z,12.53
2019-03-20T05:03:49.300Z,18.67
2019-03-20T05:08:48.190Z,9.83
2019-03-20T05:11:18.484Z,10.32
2019-03-20T05:13:47.228Z,10.18
2019-03-20T05:28:50.828Z,11.55
2019-03-20T05:29:31.671Z,11.78
2019-03-20T05:32:00.548Z,11.38
2019-03-20T05:34:35.816Z,10.48
2019-03-20T05:39:45.975Z,13.58
2019-03-20T05:42:15.879Z,15.58
2019-03-20T05:44:57.053Z,11.97
2019-03-20T05:47:25.743Z,10.63
2019-03-20T05:49:59.767Z,10.53
2019-03-20T05:55:24.798Z,11.65
2019-03-20T05:57:54.293Z,20.20
2019-03-20T06:04:20.522Z,13.72
2019-03-20T06:06:52.411Z,13.80
2019-03-20T06:09:24.342Z,11.45
2019-03-20T06:11:53.126Z,13.38
2019-03-20T06:14:23.552Z,13.20
2019-03-20T06:16:52.217Z,13.15
2019-03-20T06:19:21.096Z,17.40
2019-03-20T06:21:49.738Z,12.10
2019-03-20T06:24:18.402Z,11.80
2019-03-20T06:26:47.085Z,13.22
2019-03-20T06:29:15.660Z,11.73
2019-03-20T06:31:44.342Z,18.37
2019-03-20T06:34:13.040Z,10.65
2019-03-20T06:36:41.628Z,13.13
2019-03-20T06:39:10.310Z,15.85
2019-03-20T06:41:41.753Z,15.13
2019-03-20T06:44:10.385Z,12.10
2019-03-20T06:46:39.120Z,9.80
2019-03-20T06:49:10.830Z,12.43
2019-03-20T06:51:39.576Z,14.65
2019-03-20T06:54:10.481Z,8.40
2019-03-20T06:56:39.406Z,9.18
2019-03-20T06:59:29.273Z,9.60
2019-03-20T07:02:08.931Z,17.45
2019-03-20T07:04:52.277Z,11.33
2019-03-20T07:07:24.119Z,8.13
2019-03-20T07:10:18.087Z,8.33
2019-03-20T07:12:46.719Z,12.82
2019-03-20T07:15:15.467Z,12.68
2019-03-20T07:17:53.062Z,9.35
2019-03-20T07:20:32.286Z,8.78
2019-03-20T07:25:49.083Z,8.93
2019-03-20T07:31:15.120Z,8.78
2019-03-20T07:33:43.847Z,9.23
2019-03-20T07:36:12.640Z,9.78
2019-03-20T07:38:41.366Z,6.87
2019-03-20T07:41:13.141Z,9.05
2019-03-20T07:43:42.218Z,14.50
2019-03-20T07:46:10.962Z,6.47
2019-03-20T07:48:40.801Z,7.03
2019-03-20T07:54:43.314Z,7.95
2019-03-20T07:57:12.017Z,5.60
2019-03-20T07:59:40.807Z,6.08
2019-03-20T08:02:12.291Z,5.65
2019-03-20T08:04:42.638Z,13.32
2019-03-20T08:07:11.191Z,6.45
2019-03-20T08:09:39.835Z,8.35
2019-03-20T08:12:08.392Z,5.75
2019-03-20T08:14:37.371Z,6.22
2019-03-20T08:17:07.143Z,6.12
2019-03-20T08:19:35.697Z,8.63
2019-03-20T08:22:04.333Z,5.60
2019-03-20T08:24:32.828Z,7.60
2019-03-20T08:27:01.414Z,7.37
2019-03-20T08:29:29.994Z,7.30
2019-03-20T08:31:58.719Z,5.35
2019-03-20T08:34:27.236Z,5.25
2019-03-20T08:36:58.348Z,7.15
2019-03-20T08:39:26.393Z,8.35
2019-03-20T08:41:54.957Z,4.90
2019-03-20T08:44:23.503Z,6.58
2019-03-20T08:46:52.133Z,9.98
2019-03-20T08:49:20.811Z,4.85
2019-03-20T08:51:49.351Z,6.37
2019-03-20T08:54:17.873Z,8.43
2019-03-20T08:56:46.359Z,5.78
2019-03-20T08:59:15.031Z,8.98
2019-03-20T09:01:43.622Z,9.00
2019-03-20T09:04:12.141Z,6.30
2019-03-20T09:06:40.641Z,7.53
2019-03-20T09:09:09.305Z,9.25
2019-03-20T09:11:37.992Z,4.85
2019-03-20T09:14:06.742Z,5.00
2019-03-20T09:16:35.431Z,6.47
2019-03-20T09:19:04.252Z,5.60
2019-03-20T09:21:32.799Z,8.58
2019-03-20T09:24:01.273Z,4.28
2019-03-20T09:26:33.579Z,6.28
2019-03-20T09:29:02.242Z,4.15
2019-03-20T09:31:30.905Z,11.97
2019-03-20T09:33:59.452Z,6.70
2019-03-20T09:36:27.982Z,4.65
2019-03-20T09:38:56.550Z,4.08
2019-03-20T09:41:25.119Z,5.58
2019-03-20T09:43:53.637Z,7.28
2019-03-20T09:46:22.323Z,4.87
2019-03-20T09:48:50.827Z,5.80
2019-03-20T09:51:19.513Z,6.70
2019-03-20T09:53:48.015Z,7.37
2019-03-20T09:56:16.485Z,6.08
2019-03-20T09:58:44.977Z,6.45
2019-03-20T10:01:13.429Z,5.25
2019-03-20T10:03:42.014Z,4.97
2019-03-20T10:06:10.490Z,4.67
2019-03-20T10:08:38.969Z,4.22
2019-03-20T10:11:07.446Z,7.47
2019-03-20T10:13:35.911Z,5.62
2019-03-20T10:16:04.473Z,4.47
2019-03-20T10:18:32.954Z,9.13
2019-03-20T10:21:01.465Z,4.35
2019-03-20T10:23:29.933Z,3.85
2019-03-20T10:25:58.692Z,5.50
2019-03-20T10:28:27.200Z,7.30
2019-03-20T10:30:58.356Z,4.97
2019-03-20T10:33:26.976Z,3.33
2019-03-20T10:35:55.615Z,3.72
2019-03-20T10:38:24.351Z,3.85
2019-03-20T10:40:52.894Z,5.30
2019-03-20T10:43:21.749Z,5.97
2019-03-20T10:45:50.371Z,5.53
2019-03-20T10:48:19.053Z,6.42
2019-03-20T10:50:47.531Z,5.25
2019-03-20T10:53:16.056Z,11.38
2019-03-20T10:55:44.715Z,4.08
2019-03-20T10:58:13.361Z,5.20
2019-03-20T11:00:43.544Z,8.48
2019-03-20T11:03:12.126Z,7.12
2019-03-20T11:05:40.771Z,8.18
2019-03-20T11:08:09.328Z,5.50
2019-03-20T11:10:38.040Z,4.62
2019-03-20T11:13:06.609Z,4.95
2019-03-20T11:15:35.300Z,6.37
2019-03-20T11:18:04.005Z,4.45
2019-03-20T11:20:32.579Z,5.45
2019-03-20T11:23:01.305Z,5.42
2019-03-20T11:25:30.053Z,5.87
2019-03-20T11:28:03.416Z,6.10
2019-03-20T11:30:35.365Z,4.95
2019-03-20T11:33:04.285Z,4.50
2019-03-20T11:35:37.239Z,6.80
2019-03-20T11:38:08.965Z,5.67
2019-03-20T11:40:39.153Z,5.05
2019-03-20T11:43:07.933Z,5.95
2019-03-20T11:45:36.598Z,4.55
2019-03-20T11:48:05.528Z,3.70
2019-03-20T11:50:39.178Z,4.80
2019-03-20T11:53:08.482Z,4.17
2019-03-20T11:55:37.472Z,3.45
2019-03-20T11:58:06.800Z,3.77
2019-03-20T12:00:35.407Z,3.60
2019-03-20T12:03:04.276Z,4.50
2019-03-20T12:05:32.987Z,7.65
2019-03-20T12:08:01.570Z,3.02
2019-03-20T12:10:31.309Z,5.47
2019-03-20T12:12:59.832Z,6.22
2019-03-20T12:15:28.381Z,5.62
2019-03-20T12:17:57.126Z,4.83
2019-03-20T12:20:25.849Z,4.37
2019-03-20T12:22:54.537Z,7.70
2019-03-20T12:25:28.306Z,7.03
2019-03-20T12:27:56.875Z,7.60
2019-03-20T12:30:33.765Z,4.90
2019-03-20T12:33:03.321Z,6.95
2019-03-20T12:35:35.081Z,5.53
2019-03-20T12:38:13.683Z,6.17
2019-03-20T12:40:33.920Z,5.28
2019-03-20T12:43:02.467Z,5.00
2019-03-20T12:45:39.211Z,6.80
2019-03-20T12:48:09.771Z,5.90
2019-03-20T12:50:38.343Z,7.37
2019-03-20T12:53:13.113Z,5.28
2019-03-20T12:55:41.612Z,9.18
2019-03-20T12:58:10.073Z,5.95
2019-03-20T13:00:38.565Z,5.37
2019-03-20T13:03:07.039Z,4.85
2019-03-20T13:05:35.567Z,7.12
2019-03-20T13:08:06.054Z,6.53
2019-03-20T13:10:34.190Z,4.80
2019-03-20T13:13:02.734Z,6.55
2019-03-20T13:15:33.395Z,8.15
2019-03-20T13:18:01.425Z,7.17
2019-03-20T13:20:30.024Z,6.87
2019-03-20T13:23:04.725Z,4.58
2019-03-20T13:25:33.313Z,5.35
2019-03-20T13:28:01.803Z,5.15
2019-03-20T13:30:42.830Z,5.53
2019-03-20T13:33:11.566Z,5.67
2019-03-20T13:35:40.180Z,7.00
2019-03-20T13:38:08.672Z,6.33
2019-03-20T13:40:37.157Z,5.00
2019-03-20T13:43:05.641Z,6.72
2019-03-20T13:45:34.206Z,6.58
2019-03-20T13:48:02.738Z,9.53
2019-03-20T13:50:31.313Z,6.97
2019-03-20T13:52:59.872Z,6.67
2019-03-20T13:55:28.339Z,5.33
2019-03-20T13:57:56.846Z,6.97
2019-03-20T14:00:28.419Z,6.87
2019-03-20T14:02:56.949Z,7.35
2019-03-20T14:05:25.481Z,8.70
2019-03-20T14:07:55.031Z,7.85
2019-03-20T14:10:27.948Z,6.12
2019-03-20T14:12:56.422Z,8.25
2019-03-20T14:15:24.882Z,7.40
2019-03-20T14:17:53.432Z,4.83
2019-03-20T14:20:32.383Z,6.92
2019-03-20T14:23:00.866Z,8.18
2019-03-20T14:25:29.406Z,7.80
2019-03-20T14:27:57.982Z,6.35
2019-03-20T14:30:27.340Z,6.72
2019-03-20T14:32:56.185Z,5.30
2019-03-20T14:35:24.794Z,6.08
2019-03-20T14:37:53.348Z,4.20
2019-03-20T14:40:36.063Z,6.58
2019-03-20T14:43:02.584Z,5.70
2019-03-20T14:45:31.123Z,7.72
2019-03-20T14:47:59.590Z,13.18
2019-03-20T14:50:32.980Z,6.65
2019-03-20T14:53:01.454Z,6.97
2019-03-20T14:55:29.939Z,7.92
2019-03-20T14:57:58.445Z,7.87
2019-03-20T15:00:30.765Z,5.62
2019-03-20T15:02:59.456Z,4.97
2019-03-20T15:05:28.162Z,6.47
2019-03-20T15:07:56.690Z,8.90
2019-03-20T15:10:28.773Z,5.30
2019-03-20T15:12:58.975Z,8.35
2019-03-20T15:15:42.611Z,5.90
2019-03-20T15:18:11.129Z,9.00
2019-03-20T15:20:39.783Z,7.72
2019-03-20T15:23:08.656Z,7.17
2019-03-20T15:25:39.912Z,5.78
2019-03-20T15:28:08.485Z,7.35
2019-03-20T15:30:37.015Z,6.05
2019-03-20T15:33:05.733Z,6.10
2019-03-20T15:35:34.438Z,6.80
2019-03-20T15:38:03.208Z,6.08
2019-03-20T15:40:31.974Z,8.60
2019-03-20T15:43:02.108Z,8.65
2019-03-20T15:45:30.817Z,7.10
2019-03-20T15:47:59.816Z,8.35
2019-03-20T15:50:28.563Z,8.20
2019-03-20T15:52:57.083Z,8.80
2019-03-20T15:55:37.372Z,8.68
2019-03-20T15:58:05.938Z,9.78
2019-03-20T16:00:34.528Z,9.43
2019-03-20T16:03:21.440Z,9.20
2019-03-20T16:05:50.421Z,9.63
2019-03-20T16:08:18.901Z,8.18
2019-03-20T16:10:49.092Z,7.35
2019-03-20T16:13:17.728Z,14.05
2019-03-20T16:15:46.272Z,10.70
2019-03-20T16:18:25.590Z,9.35
2019-03-20T16:20:55.925Z,10.00
2019-03-20T16:23:24.478Z,9.40
2019-03-20T16:25:53.256Z,10.70
2019-03-20T16:28:21.738Z,13.53
2019-03-20T16:30:50.486Z,10.40
2019-03-20T16:33:23.713Z,18.07
2019-03-20T16:35:49.505Z,10.85
2019-03-20T16:38:17.990Z,9.35
2019-03-20T16:40:50.991Z,8.28
2019-03-20T16:43:20.008Z,10.67
2019-03-20T16:45:48.434Z,10.70
2019-03-20T16:48:17.234Z,8.80
2019-03-20T16:50:48.415Z,7.47
2019-03-20T16:53:16.952Z,8.00
2019-03-20T16:55:45.528Z,10.82
2019-03-20T16:58:14.098Z,11.60
2019-03-20T17:00:42.675Z,10.45
2019-03-20T17:03:11.285Z,16.20
2019-03-20T17:05:42.547Z,10.55
2019-03-20T17:08:12.672Z,11.80
2019-03-20T17:10:43.414Z,9.80
2019-03-20T17:13:11.911Z,9.10
2019-03-20T17:15:43.215Z,11.90
2019-03-20T17:18:13.615Z,14.58
2019-03-20T17:20:42.061Z,9.73
2019-03-20T17:23:10.575Z,9.83
2019-03-20T17:25:39.090Z,12.35
2019-03-20T17:28:12.194Z,13.45
2019-03-20T17:30:43.112Z,12.47
2019-03-20T17:33:13.872Z,12.25
2019-03-20T17:35:42.439Z,15.55
2019-03-20T17:38:11.008Z,12.88
2019-03-20T17:40:46.043Z,16.07
2019-03-20T17:43:14.625Z,14.63
2019-03-20T17:45:45.900Z,13.43
2019-03-20T17:48:14.385Z,13.00
2019-03-20T17:50:42.875Z,17.15
2019-03-20T17:53:16.033Z,14.95
2019-03-20T17:55:44.699Z,15.65
2019-03-20T17:58:13.166Z,12.00
2019-03-20T18:00:49.572Z,15.15
2019-03-20T18:03:18.030Z,10.00
2019-03-20T18:05:50.922Z,18.02
2019-03-20T18:08:19.504Z,17.98
2019-03-20T18:10:52.926Z,14.13
2019-03-20T18:13:21.431Z,10.03
2019-03-20T18:15:53.237Z,8.83
2019-03-20T18:18:21.759Z,12.13
2019-03-20T18:20:50.337Z,7.47
2019-03-20T18:23:18.920Z,14.07
2019-03-20T18:25:47.417Z,10.68
2019-03-20T18:28:15.979Z,11.30
2019-03-20T18:30:45.374Z,11.00
2019-03-20T18:33:13.847Z,8.88
2019-03-20T18:35:42.541Z,13.75
2019-03-20T18:38:11.110Z,13.10
2019-03-20T18:40:39.654Z,17.50
2019-03-20T18:43:08.125Z,15.25
2019-03-20T18:45:36.595Z,8.45
2019-03-20T18:48:05.245Z,9.20
2019-03-20T18:50:33.839Z,21.52
2019-03-20T18:53:02.339Z,9.00
2019-03-20T18:55:30.884Z,18.57
2019-03-20T18:57:59.485Z,13.83
2019-03-20T19:00:33.240Z,16.75
2019-03-20T19:03:18.278Z,13.40
2019-03-20T19:06:07.084Z,12.53
2019-03-20T19:08:35.717Z,18.12
2019-03-20T19:11:04.417Z,22.85
2019-03-20T19:13:34.535Z,20.12
2019-03-20T19:16:03.109Z,29.32
2019-03-20T19:18:31.714Z,24.60
2019-03-20T19:21:00.198Z,24.50
2019-03-20T19:23:28.705Z,20.85
2019-03-20T19:25:57.168Z,23.00
2019-03-20T19:28:25.662Z,27.02
2019-03-20T19:30:57.015Z,22.67
2019-03-20T19:33:25.502Z,31.17
2019-03-20T19:35:54.030Z,35.90
2019-03-20T19:38:22.992Z,29.07
2019-03-20T19:40:51.543Z,32.20
2019-03-20T19:43:22.598Z,28.67
2019-03-20T19:45:50.267Z,21.00
2019-03-20T19:48:18.777Z,22.32
2019-03-20T19:50:47.294Z,20.68
2019-03-20T19:53:15.773Z,23.22
2019-03-20T19:55:44.303Z,17.95
2019-03-20T19:58:12.966Z,21.55
2019-03-20T20:00:43.431Z,20.12
2019-03-20T20:03:11.719Z,18.02
2019-03-20T20:05:40.214Z,21.65
2019-03-20T20:08:08.751Z,18.90
2019-03-20T20:10:37.221Z,15.25
2019-03-20T20:13:05.714Z,17.42
2019-03-20T20:15:35.420Z,19.70
2019-03-20T20:18:03.883Z,17.00
2019-03-20T20:20:34.323Z,22.90
2019-03-20T20:23:04.473Z,21.87
2019-03-20T20:25:33.107Z,19.45
2019-03-20T20:28:01.609Z,15.25
2019-03-20T20:30:30.366Z,13.98
2019-03-20T20:32:58.832Z,15.95
2019-03-20T20:35:27.650Z,17.82
2019-03-20T20:37:56.223Z,15.25
2019-03-20T20:40:29.565Z,16.42
2019-03-20T20:42:58.614Z,18.82
2019-03-20T20:45:28.913Z,13.28
2019-03-20T20:47:57.362Z,13.72
2019-03-20T20:50:28.977Z,16.48
2019-03-20T20:52:57.607Z,20.10
2019-03-20T20:55:26.107Z,15.88
2019-03-20T20:57:54.808Z,13.50
2019-03-20T21:00:29.338Z,11.73
2019-03-20T21:02:57.888Z,15.23
2019-03-20T21:05:29.531Z,21.75
2019-03-20T21:07:58.184Z,12.05
2019-03-20T21:10:26.708Z,17.27
2019-03-20T21:12:57.153Z,16.90
2019-03-20T21:15:45.882Z,13.65
2019-03-20T21:18:20.214Z,15.23
2019-03-20T21:20:49.393Z,13.22
2019-03-20T21:23:38.117Z,13.35
2019-03-20T21:26:30.481Z,11.38
2019-03-20T21:29:30.997Z,9.65
2019-03-20T21:32:21.011Z,10.00
2019-03-20T21:35:12.528Z,16.10
2019-03-20T21:37:47.605Z,9.43
2019-03-20T21:40:18.337Z,11.03
2019-03-20T21:43:24.032Z,12.70
2019-03-20T21:45:55.895Z,14.83
2019-03-20T21:48:24.563Z,12.20
2019-03-20T21:50:56.374Z,12.30
2019-03-20T21:54:00.154Z,12.98
2019-03-20T21:56:53.514Z,17.87
2019-03-20T21:59:43.707Z,18.67
2019-03-20T22:02:26.999Z,10.28
2019-03-20T22:04:55.532Z,8.28
2019-03-20T22:07:24.208Z,15.75
2019-03-20T22:09:56.120Z,11.35
2019-03-20T22:12:34.056Z,10.55
2019-03-20T22:15:37.926Z,14.55
2019-03-20T22:18:27.929Z,12.18
2019-03-20T22:21:14.481Z,8.25
2019-03-20T22:23:49.312Z,13.90
2019-03-20T22:26:33.202Z,11.78
2019-03-20T22:29:11.973Z,24.92
2019-03-20T22:31:59.056Z,8.50
2019-03-20T22:34:39.849Z,9.68
2019-03-20T22:37:08.347Z,10.03
2019-03-20T22:40:05.794Z,8.98
2019-03-20T22:42:40.537Z,11.28
2019-03-20T22:45:15.147Z,12.37
2019-03-20T22:48:06.653Z,10.03
2019-03-20T22:50:44.470Z,14.18
2019-03-20T22:53:31.243Z,9.30
2019-03-20T22:56:05.751Z,12.95
2019-03-20T22:58:44.464Z,11.40
2019-03-20T23:01:19.563Z,10.03
2019-03-20T23:03:57.366Z,11.05
2019-03-20T23:06:25.947Z,6.75
2019-03-20T23:08:54.400Z,8.75
2019-03-20T23:11:28.868Z,10.72
2019-03-20T23:13:57.570Z,6.83
2019-03-20T23:16:26.121Z,7.78
2019-03-20T23:18:54.835Z,8.83
2019-03-20T23:21:23.261Z,14.20
2019-03-20T23:23:51.891Z,9.35
2019-03-20T23:26:20.554Z,15.13
2019-03-20T23:28:49.217Z,13.55
2019-03-20T23:31:17.745Z,12.07
2019-03-20T23:33:47.415Z,9.85
2019-03-20T23:36:16.354Z,13.88
2019-03-20T23:38:44.892Z,13.75
2019-03-20T23:41:15.319Z,12.15
2019-03-20T23:43:52.432Z,8.78
2019-03-20T23:46:14.139Z,14.13
2019-03-20T23:48:58.104Z,9.70
2019-03-20T23:51:31.978Z,12.82
2019-03-20T23:54:00.766Z,13.03
2019-03-20T23:56:35.400Z,11.28
2019-03-20T23:59:09.005Z,10.95
